Pevek, Russia
Current Conditions -  °F | °C
As of 9:55 PM on Friday 24 Oct 2014 (Local Time) from PALU Reporting Station
Freezing Rain Freezing Rain  
Wind Chill: -9°   Ceiling: 4200
Heat Index: -1°   Visibility: 5mi
Dew Point: -4°   Wind: 33mph
Humidity: 81%   Direction: 160°SSE
Pressure: 29.46"   Gusts: 40mph
Location:  69.7°N, 170.38°E
Report Text: PALU 240955Z AUTO 16029G35KT 5SM -FZRA FEW022 OVC042 M01/M04 A2946 RMK AO2 PK WND 18040/0934 SLP977 P0000 T10081037
Loading
Personal Weather Stations






























Interactive Weather Map
Tropical Storm Tracking
New forecast layout! Learn more

10-Day Weather Forecast

Advertisements
Track Severe Weather on mobile